Time;durP1;ratioP1;P1;durP2;ratioP2;P2;SDS_P1;SDS_P2;PMS_P1;PMS_P2;Temp;Humidity;BMP_temperature;BMP_pressure;BME280_temperature;BME280_humidity;BME280_pressure;Samples;Min_cycle;Max_cycle;Signal;HPM_P1;HPM_P2
2022/07/11 00:00:08;;;;;;;1999.90;999.90;;;10.50;95.10;;;;;;5080011;28;20060;-79
2022/07/11 00:02:35;;;;;;;1999.90;999.90;;;10.40;95.00;;;;;;5077753;28;20172;-79
2022/07/11 00:05:02;;;;;;;1999.90;999.90;;;10.30;94.90;;;;;;5094824;28;20044;-78
2022/07/11 00:07:27;;;;;;;1999.90;999.90;;;10.30;95.50;;;;;;5078770;28;20024;-79
2022/07/11 00:09:53;;;;;;;1999.90;999.90;;;10.30;95.80;;;;;;5091105;28;20322;-80
2022/07/11 00:12:21;;;;;;;1999.90;999.90;;;10.20;96.70;;;;;;5083791;28;20030;-78
2022/07/11 00:14:49;;;;;;;1999.90;999.90;;;10.20;96.80;;;;;;5104743;28;20043;-79
2022/07/11 00:17:15;;;;;;;1999.90;999.90;;;10.20;97.00;;;;;;5066903;28;20028;-78
2022/07/11 00:19:41;;;;;;;1999.90;999.90;;;10.20;96.00;;;;;;5085365;28;20027;-79
2022/07/11 00:22:06;;;;;;;1999.90;999.90;;;10.20;96.50;;;;;;5082413;28;20027;-79
2022/07/11 00:24:33;;;;;;;1999.90;999.90;;;10.20;96.20;;;;;;5084897;28;20092;-79
2022/07/11 00:26:59;;;;;;;1999.90;999.90;;;10.30;96.90;;;;;;5076416;28;20032;-79
2022/07/11 00:29:24;;;;;;;1999.90;999.90;;;10.20;96.80;;;;;;5071401;28;20089;-78
2022/07/11 00:31:50;;;;;;;1999.90;999.90;;;10.20;96.40;;;;;;5078255;28;20036;-79
2022/07/11 00:34:17;;;;;;;1999.90;999.90;;;10.10;96.80;;;;;;5092748;28;20029;-79
2022/07/11 00:36:43;;;;;;;1999.90;999.90;;;9.90;97.60;;;;;;5093108;28;20419;-79
2022/07/11 00:39:09;;;;;;;1999.90;999.90;;;9.90;97.50;;;;;;5091139;28;20084;-78
2022/07/11 00:41:34;;;;;;;1999.90;999.90;;;10.00;97.00;;;;;;5084613;28;20201;-79
2022/07/11 00:44:01;;;;;;;1999.90;999.90;;;9.90;97.80;;;;;;5080932;28;20075;-79
2022/07/11 00:46:28;;;;;;;1999.90;999.90;;;9.80;97.80;;;;;;5080683;28;20565;-79
2022/07/11 00:48:54;;;;;;;1999.90;999.90;;;9.90;97.70;;;;;;5083403;28;20051;-79
2022/07/11 00:51:21;;;;;;;1999.90;999.90;;;9.80;99.00;;;;;;5103599;28;20094;-78
2022/07/11 00:53:51;;;;;;;1999.90;999.90;;;9.70;98.30;;;;;;5101296;28;20038;-79
2022/07/11 00:56:20;;;;;;;1999.90;999.90;;;9.50;99.60;;;;;;5089398;28;20035;-82
2022/07/11 00:58:47;;;;;;;1999.90;999.90;;;9.60;99.20;;;;;;5094236;28;20054;-79
2022/07/11 01:01:13;;;;;;;1999.90;999.90;;;9.60;99.00;;;;;;5089172;28;20111;-78
2022/07/11 01:03:41;;;;;;;1999.90;999.90;;;9.60;99.70;;;;;;5091440;28;20119;-79
2022/07/11 01:06:07;;;;;;;1999.90;999.90;;;9.60;99.50;;;;;;5068719;28;20396;-78
2022/07/11 01:08:35;;;;;;;1999.90;999.90;;;9.50;99.10;;;;;;5090144;28;20181;-82
2022/07/11 01:11:09;;;;;;;1999.90;999.90;;;9.50;98.60;;;;;;5097676;28;20183;-78
2022/07/11 01:13:35;;;;;;;1999.90;999.90;;;9.50;98.90;;;;;;5084939;28;20576;-79
2022/07/11 01:16:14;;;;;;;1999.90;999.90;;;9.60;99.10;;;;;;5077381;28;20042;-78
2022/07/11 01:18:41;;;;;;;1999.90;999.90;;;9.40;99.90;;;;;;5101316;28;20114;-79
2022/07/11 01:21:30;;;;;;;1999.90;999.90;;;9.50;99.90;;;;;;5098439;28;20030;-79
2022/07/11 01:23:59;;;;;;;1999.90;999.90;;;9.50;99.50;;;;;;5081679;28;20130;-79
2022/07/11 01:26:25;;;;;;;1999.90;999.90;;;9.50;99.30;;;;;;5076297;28;20052;-79
2022/07/11 01:28:52;;;;;;;1999.90;999.90;;;9.50;99.70;;;;;;5093398;28;20016;-78
2022/07/11 01:31:19;;;;;;;1999.90;999.90;;;9.50;99.10;;;;;;5096962;28;20039;-78
2022/07/11 01:33:44;;;;;;;1999.90;999.90;;;9.50;98.70;;;;;;5075849;28;20052;-78
2022/07/11 01:36:10;;;;;;;1999.90;999.90;;;9.50;99.20;;;;;;5093258;28;20060;-78
2022/07/11 01:38:36;;;;;;;1999.90;999.90;;;9.50;99.90;;;;;;5090325;28;20028;-78
2022/07/11 01:41:02;;;;;;;1999.90;999.90;;;9.50;98.70;;;;;;5092662;28;20027;-79
2022/07/11 01:43:28;;;;;;;1999.90;999.90;;;9.50;98.10;;;;;;5087692;28;20429;-79
2022/07/11 01:45:55;;;;;;;1999.90;999.90;;;9.40;99.90;;;;;;5084602;28;20028;-79
2022/07/11 01:48:21;;;;;;;1999.90;999.90;;;9.50;99.90;;;;;;5104636;28;20546;-79
2022/07/11 01:50:48;;;;;;;1999.90;999.90;;;9.50;99.90;;;;;;5072690;28;20187;-79
2022/07/11 01:53:13;;;;;;;1999.90;999.90;;;9.40;99.10;;;;;;5092681;28;20471;-79
2022/07/11 01:55:39;;;;;;;1999.90;999.90;;;9.30;99.20;;;;;;5075418;28;20047;-79
2022/07/11 01:58:05;;;;;;;1999.90;999.90;;;9.40;99.90;;;;;;5099379;28;20475;-83
2022/07/11 02:00:30;;;;;;;1999.90;999.90;;;9.40;99.90;;;;;;5059517;28;20046;-79
2022/07/11 02:02:56;;;;;;;1999.90;999.90;;;9.40;99.70;;;;;;5078988;28;20043;-79
2022/07/11 02:05:22;;;;;;;1999.90;999.90;;;9.30;99.90;;;;;;5073695;28;20118;-79
2022/07/11 02:10:32;;;;;;;1999.90;999.90;;;9.20;99.90;;;;;;5099979;28;20026;-78
2022/07/11 02:12:59;;;;;;;1999.90;999.90;;;9.20;99.90;;;;;;5101503;28;20031;-79
2022/07/11 02:15:29;;;;;;;1999.90;999.90;;;9.00;99.90;;;;;;5101411;28;20486;-79
2022/07/11 02:17:54;;;;;;;1999.90;999.90;;;8.90;99.90;;;;;;5084924;28;20048;-79
2022/07/11 02:20:21;;;;;;;1999.90;999.90;;;8.90;99.90;;;;;;5094996;28;20073;-79
2022/07/11 02:22:48;;;;;;;1999.90;999.90;;;8.90;99.90;;;;;;5097836;28;20028;-79
2022/07/11 02:25:14;;;;;;;1999.90;999.90;;;8.90;99.90;;;;;;5098341;28;20073;-79
2022/07/11 02:27:40;;;;;;;1999.90;999.90;;;8.90;99.90;;;;;;5078363;28;20040;-78
2022/07/11 02:30:06;;;;;;;1999.90;999.90;;;8.90;99.90;;;;;;5094008;28;20028;-79
2022/07/11 02:32:32;;;;;;;1999.90;999.90;;;9.00;99.90;;;;;;5077190;28;20181;-79
2022/07/11 02:34:57;;;;;;;1999.90;999.90;;;9.10;99.90;;;;;;5091599;28;20126;-78
2022/07/11 02:37:23;;;;;;;1999.90;999.90;;;9.00;99.90;;;;;;5051328;28;20032;-78
2022/07/11 02:39:48;;;;;;;1999.90;999.90;;;9.00;99.90;;;;;;5094215;28;20572;-78
2022/07/11 02:42:14;;;;;;;1999.90;999.90;;;8.90;99.90;;;;;;5055558;28;20039;-78
2022/07/11 02:44:40;;;;;;;1999.90;999.90;;;8.90;99.90;;;;;;5056343;28;20024;-79
2022/07/11 02:47:06;;;;;;;1999.90;999.90;;;8.90;99.90;;;;;;5103574;28;20024;-79
2022/07/11 02:49:32;;;;;;;1999.90;999.90;;;8.90;99.90;;;;;;5078829;28;20022;-78
2022/07/11 02:51:58;;;;;;;1999.90;999.90;;;9.00;99.90;;;;;;5082667;28;20061;-79
2022/07/11 02:54:24;;;;;;;1999.90;999.90;;;8.90;99.90;;;;;;5078348;28;20119;-80
2022/07/11 02:56:50;;;;;;;1999.90;999.90;;;8.80;99.90;;;;;;5076825;28;20726;-79
2022/07/11 02:59:15;;;;;;;1999.90;999.90;;;8.80;99.90;;;;;;5095252;28;20064;-78
2022/07/11 03:01:41;;;;;;;1999.90;999.90;;;8.80;99.90;;;;;;5092157;28;20040;-79
2022/07/11 03:04:10;;;;;;;1999.90;999.90;;;8.80;99.90;;;;;;5084100;28;20544;-78
2022/07/11 03:06:36;;;;;;;1999.90;999.90;;;8.80;99.90;;;;;;5066532;28;20037;-79
2022/07/11 03:09:02;;;;;;;1999.90;999.90;;;8.80;99.90;;;;;;5088100;28;20337;-78
2022/07/11 03:11:27;;;;;;;1999.90;999.90;;;8.80;99.90;;;;;;5070153;28;20487;-78
2022/07/11 03:13:53;;;;;;;1999.90;999.90;;;8.80;99.90;;;;;;5080815;28;20070;-79
2022/07/11 03:16:19;;;;;;;1999.90;999.90;;;8.80;99.90;;;;;;5099169;28;20466;-81
2022/07/11 03:18:45;;;;;;;1999.90;999.90;;;8.80;99.90;;;;;;5099643;28;20028;-78
2022/07/11 03:21:11;;;;;;;1999.90;999.90;;;8.80;99.90;;;;;;5080139;28;20062;-79
2022/07/11 03:23:36;;;;;;;1999.90;999.90;;;8.80;99.90;;;;;;5080184;28;20032;-79
2022/07/11 03:26:02;;;;;;;1999.90;999.90;;;8.80;99.90;;;;;;5079547;28;20043;-79
2022/07/11 03:28:28;;;;;;;1999.90;999.90;;;8.80;99.90;;;;;;5069730;28;20883;-83
2022/07/11 03:30:54;;;;;;;1999.90;999.90;;;8.70;99.90;;;;;;5077075;28;20036;-79
2022/07/11 03:33:20;;;;;;;1999.90;999.90;;;8.60;99.90;;;;;;5092316;28;20039;-79
2022/07/11 03:35:46;;;;;;;1999.90;999.90;;;8.60;99.90;;;;;;5072037;28;20025;-78
2022/07/11 03:38:13;;;;;;;1999.90;999.90;;;8.50;99.90;;;;;;5074225;28;20498;-78
2022/07/11 03:40:39;;;;;;;1999.90;999.90;;;8.50;99.90;;;;;;5097733;28;20027;-79
2022/07/11 03:43:05;;;;;;;1999.90;999.90;;;8.50;99.90;;;;;;5101760;28;20098;-79
2022/07/11 03:45:30;;;;;;;1999.90;999.90;;;8.50;99.90;;;;;;5099957;28;20110;-78
2022/07/11 03:47:56;;;;;;;1999.90;999.90;;;8.60;99.90;;;;;;5065348;28;20075;-79
2022/07/11 03:50:22;;;;;;;1999.90;999.90;;;8.60;99.90;;;;;;5080125;28;20493;-79
2022/07/11 03:52:47;;;;;;;1999.90;999.90;;;8.60;99.90;;;;;;5102501;28;20019;-79
2022/07/11 03:55:13;;;;;;;1999.90;999.90;;;8.60;99.90;;;;;;5081744;28;20052;-79
2022/07/11 03:57:39;;;;;;;1999.90;999.90;;;8.60;99.90;;;;;;5079000;28;20032;-78
2022/07/11 04:00:10;;;;;;;1999.90;999.90;;;8.90;99.90;;;;;;5096731;28;20034;-78
2022/07/11 04:02:36;;;;;;;1999.90;999.90;;;8.90;99.90;;;;;;5071977;28;20044;-79
2022/07/11 04:05:03;;;;;;;1999.90;999.90;;;9.00;99.90;;;;;;5091695;28;20020;-79
2022/07/11 04:07:28;;;;;;;1999.90;999.90;;;9.10;99.90;;;;;;5061581;28;20453;-79
2022/07/11 04:09:55;;;;;;;1999.90;999.90;;;9.20;99.90;;;;;;5085447;28;20023;-79
2022/07/11 04:12:21;;;;;;;1999.90;999.90;;;9.30;99.90;;;;;;5098694;28;20036;-79
2022/07/11 04:14:47;;;;;;;1999.90;999.90;;;9.50;99.90;;;;;;5061626;28;20051;-79
2022/07/11 04:17:14;;;;;;;1999.90;999.90;;;9.60;99.90;;;;;;5065186;28;20067;-78
2022/07/11 04:19:40;;;;;;;1999.90;999.90;;;9.70;99.90;;;;;;5078244;28;20590;-78
2022/07/11 04:22:07;;;;;;;1999.90;999.90;;;9.60;99.90;;;;;;5083831;28;20490;-78
2022/07/11 04:24:32;;;;;;;1999.90;999.90;;;9.70;99.90;;;;;;5079509;28;20020;-79
2022/07/11 04:26:59;;;;;;;1999.90;999.90;;;9.80;99.90;;;;;;5071410;28;20083;-79
2022/07/11 04:29:25;;;;;;;1999.90;999.90;;;9.70;99.90;;;;;;5072293;28;20094;-78
2022/07/11 04:31:51;;;;;;;1999.90;999.90;;;9.60;99.90;;;;;;5077878;28;20483;-78
2022/07/11 04:34:19;;;;;;;1999.90;999.90;;;9.80;99.90;;;;;;5076286;28;20021;-79
2022/07/11 04:36:45;;;;;;;1999.90;999.90;;;9.90;99.90;;;;;;5069163;28;20732;-79
2022/07/11 04:39:12;;;;;;;1999.90;999.90;;;10.00;99.90;;;;;;5052680;28;20056;-77
2022/07/11 04:41:38;;;;;;;1999.90;999.90;;;10.10;99.90;;;;;;5080913;28;20446;-77
2022/07/11 04:44:04;;;;;;;1999.90;999.90;;;10.30;99.90;;;;;;5072950;28;20089;-78
2022/07/11 04:46:31;;;;;;;1999.90;999.90;;;10.40;99.90;;;;;;5071815;28;20894;-78
2022/07/11 04:48:57;;;;;;;1999.90;999.90;;;10.40;99.90;;;;;;5072882;28;20070;-78
2022/07/11 04:51:23;;;;;;;1999.90;999.90;;;10.50;99.90;;;;;;5074388;28;20024;-78
2022/07/11 04:53:49;;;;;;;1999.90;999.90;;;10.70;99.90;;;;;;5077110;28;20025;-78
2022/07/11 04:56:15;;;;;;;1999.90;999.90;;;10.70;99.90;;;;;;5069117;28;20424;-78
2022/07/11 04:58:41;;;;;;;1999.90;999.90;;;10.70;99.90;;;;;;5068299;28;20025;-78
2022/07/11 05:01:06;;;;;;;1999.90;999.90;;;10.80;99.90;;;;;;5073760;28;20040;-78
2022/07/11 05:03:32;;;;;;;1999.90;999.90;;;10.80;99.90;;;;;;5071368;28;20115;-77
2022/07/11 05:05:58;;;;;;;1999.90;999.90;;;11.00;99.90;;;;;;5068231;28;20135;-77
2022/07/11 05:08:24;;;;;;;1999.90;999.90;;;11.20;99.90;;;;;;5065606;28;20551;-79
2022/07/11 05:10:49;;;;;;;1999.90;999.90;;;11.30;99.90;;;;;;5067534;28;20474;-79
2022/07/11 05:13:15;;;;;;;1999.90;999.90;;;11.40;99.90;;;;;;5065756;28;20528;-78
2022/07/11 05:15:42;;;;;;;1999.90;999.90;;;11.50;99.90;;;;;;5053212;28;20033;-77
2022/07/11 05:18:07;;;;;;;1999.90;999.90;;;11.70;99.90;;;;;;5052857;28;20043;-78
2022/07/11 05:20:33;;;;;;;1999.90;999.90;;;11.90;99.80;;;;;;5052820;28;20480;-78
2022/07/11 05:22:59;;;;;;;1999.90;999.90;;;12.00;99.40;;;;;;5052167;28;20032;-78
2022/07/11 05:25:25;;;;;;;1999.90;999.90;;;12.10;98.40;;;;;;5053589;28;20068;-77
2022/07/11 05:27:51;;;;;;;1999.90;999.90;;;12.30;98.40;;;;;;5046762;28;20086;-77
2022/07/11 05:30:17;;;;;;;1999.90;999.90;;;12.40;96.40;;;;;;5054684;28;20024;-78
2022/07/11 05:32:42;;;;;;;1999.90;999.90;;;12.50;94.00;;;;;;5049629;28;20472;-78
2022/07/11 05:35:08;;;;;;;1999.90;999.90;;;12.50;93.50;;;;;;5057436;28;20035;-78
2022/07/11 05:37:34;;;;;;;1999.90;999.90;;;12.50;92.20;;;;;;5041085;28;20044;-78
2022/07/11 05:40:00;;;;;;;1999.90;999.90;;;12.60;93.80;;;;;;5053169;28;20036;-77
2022/07/11 05:42:27;;;;;;;1999.90;999.90;;;12.80;93.10;;;;;;5057684;28;20041;-81
2022/07/11 05:44:53;;;;;;;1999.90;999.90;;;12.90;93.40;;;;;;5059540;28;20020;-82
2022/07/11 05:47:18;;;;;;;1999.90;999.90;;;13.10;92.00;;;;;;5050722;28;20032;-82
2022/07/11 05:49:44;;;;;;;1999.90;999.90;;;13.20;94.00;;;;;;5040972;28;20035;-83
2022/07/11 05:52:10;;;;;;;1999.90;999.90;;;13.20;94.00;;;;;;5052555;28;20028;-82
2022/07/11 05:54:36;;;;;;;1999.90;999.90;;;13.30;93.90;;;;;;5052750;28;20426;-84
2022/07/11 05:57:02;;;;;;;1999.90;999.90;;;13.40;92.20;;;;;;5047504;28;20067;-83
2022/07/11 05:59:28;;;;;;;1999.90;999.90;;;13.50;91.90;;;;;;5053429;28;20108;-82
2022/07/11 06:01:54;;;;;;;1999.90;999.90;;;13.60;94.00;;;;;;5052192;28;20033;-83
2022/07/11 06:04:20;;;;;;;1999.90;999.90;;;13.70;93.60;;;;;;5041416;28;20049;-82
2022/07/11 06:06:46;;;;;;;1999.90;999.90;;;13.80;93.30;;;;;;5044554;28;20029;-83
2022/07/11 06:09:12;;;;;;;1999.90;999.90;;;13.80;92.30;;;;;;5045728;28;20372;-82
2022/07/11 06:11:38;;;;;;;1999.90;999.90;;;14.00;92.60;;;;;;5063672;28;20032;-83
2022/07/11 06:14:05;;;;;;;1999.90;999.90;;;14.00;92.00;;;;;;5057030;28;20044;-87
2022/07/11 06:16:31;;;;;;;1999.90;999.90;;;14.10;92.80;;;;;;5059332;28;20059;-79
2022/07/11 06:18:58;;;;;;;1999.90;999.90;;;14.20;92.30;;;;;;5058393;28;20039;-79
2022/07/11 06:21:24;;;;;;;1999.90;999.90;;;14.30;92.40;;;;;;5052500;28;20025;-79
2022/07/11 06:23:50;;;;;;;1999.90;999.90;;;14.50;90.50;;;;;;5052688;28;20045;-79
2022/07/11 06:26:16;;;;;;;1999.90;999.90;;;14.40;88.00;;;;;;5055551;28;20401;-78
2022/07/11 06:28:42;;;;;;;1999.90;999.90;;;14.50;89.40;;;;;;5050297;28;20494;-79
2022/07/11 06:31:08;;;;;;;1999.90;999.90;;;14.60;89.50;;;;;;5055502;28;20075;-79
2022/07/11 06:33:34;;;;;;;1999.90;999.90;;;14.90;83.20;;;;;;5053569;28;20024;-78
2022/07/11 06:36:01;;;;;;;1999.90;999.90;;;14.90;86.50;;;;;;5018930;28;20054;-78
2022/07/11 06:38:28;;;;;;;1999.90;999.90;;;15.10;80.30;;;;;;5056944;28;20036;-78
2022/07/11 06:40:54;;;;;;;1999.90;999.90;;;15.20;84.30;;;;;;5062078;28;20024;-79
2022/07/11 06:43:20;;;;;;;1999.90;999.90;;;15.30;83.10;;;;;;5056920;28;20047;-79
2022/07/11 06:45:47;;;;;;;1999.90;999.90;;;15.30;83.70;;;;;;5047175;28;20048;-78
2022/07/11 06:48:13;;;;;;;1999.90;999.90;;;15.40;79.10;;;;;;5059839;28;20025;-79
2022/07/11 06:50:39;;;;;;;1999.90;999.90;;;15.40;79.40;;;;;;5056153;28;20514;-85
2022/07/11 06:53:05;;;;;;;1999.90;999.90;;;15.70;79.50;;;;;;5057662;28;20032;-81
2022/07/11 06:55:31;;;;;;;1999.90;999.90;;;15.80;77.90;;;;;;5053780;28;20253;-81
2022/07/11 06:57:57;;;;;;;1999.90;999.90;;;15.80;79.60;;;;;;5056468;28;20055;-80
2022/07/11 07:00:23;;;;;;;1999.90;999.90;;;15.90;75.90;;;;;;5054752;28;20056;-78
2022/07/11 07:02:49;;;;;;;1999.90;999.90;;;15.90;77.10;;;;;;5028508;28;20348;-82
2022/07/11 07:05:15;;;;;;;1999.90;999.90;;;16.10;76.40;;;;;;5052525;28;20429;-79
2022/07/11 07:07:40;;;;;;;1999.90;999.90;;;16.20;74.40;;;;;;5048308;28;20071;-78
2022/07/11 07:10:07;;;;;;;1999.90;999.90;;;16.20;74.50;;;;;;5059285;28;20824;-79
2022/07/11 07:12:36;;;;;;;1999.90;999.90;;;16.20;72.40;;;;;;5061995;28;20075;-78
2022/07/11 07:15:02;;;;;;;1999.90;999.90;;;16.30;73.70;;;;;;5078696;28;20044;-79
2022/07/11 07:17:28;;;;;;;1999.90;999.90;;;16.40;71.00;;;;;;5077327;28;20029;-79
2022/07/11 07:19:53;;;;;;;1999.90;999.90;;;16.60;70.20;;;;;;5075141;28;20175;-78
2022/07/11 07:22:19;;;;;;;1999.90;999.90;;;16.70;70.20;;;;;;5070437;28;20040;-78
2022/07/11 07:24:45;;;;;;;1999.90;999.90;;;16.60;75.20;;;;;;5069803;28;20586;-79
2022/07/11 07:27:11;;;;;;;1999.90;999.90;;;16.70;72.30;;;;;;5073413;28;20024;-79
2022/07/11 07:29:38;;;;;;;1999.90;999.90;;;16.70;72.60;;;;;;5075447;28;20035;-79
2022/07/11 07:32:04;;;;;;;1999.90;999.90;;;16.70;74.10;;;;;;5074707;28;20032;-78
2022/07/11 07:34:30;;;;;;;1999.90;999.90;;;16.80;73.90;;;;;;5073465;28;20117;-77
2022/07/11 07:36:55;;;;;;;1999.90;999.90;;;17.00;71.70;;;;;;5056933;28;20499;-81
2022/07/11 07:39:21;;;;;;;1999.90;999.90;;;17.10;70.40;;;;;;5081759;28;20037;-78
2022/07/11 07:41:46;;;;;;;1999.90;999.90;;;17.10;70.80;;;;;;5071512;28;20039;-78
2022/07/11 07:44:12;;;;;;;1999.90;999.90;;;17.20;67.00;;;;;;5078524;28;20059;-78
2022/07/11 07:46:38;;;;;;;1999.90;999.90;;;17.10;65.50;;;;;;5075265;28;20113;-78
2022/07/11 07:49:03;;;;;;;1999.90;999.90;;;17.10;67.10;;;;;;5082500;28;20032;-79
2022/07/11 07:51:30;;;;;;;1999.90;999.90;;;17.30;68.70;;;;;;5076591;28;20056;-79
2022/07/11 07:53:55;;;;;;;1999.90;999.90;;;17.60;66.10;;;;;;5075913;28;20548;-78
2022/07/11 07:56:21;;;;;;;1999.90;999.90;;;17.70;62.80;;;;;;5073033;28;20028;-78
2022/07/11 07:58:47;;;;;;;1999.90;999.90;;;17.70;65.80;;;;;;5072378;28;20801;-78
2022/07/11 08:03:57;;;;;;;1999.90;999.90;;;18.10;66.10;;;;;;5069160;28;20400;-79
2022/07/11 08:06:23;;;;;;;1999.90;999.90;;;18.00;60.00;;;;;;5054903;28;20028;-77
2022/07/11 08:08:49;;;;;;;1999.90;999.90;;;18.20;60.10;;;;;;5068892;28;20032;-78
2022/07/11 08:11:15;;;;;;;1999.90;999.90;;;18.40;59.20;;;;;;5083828;28;20024;-79
2022/07/11 08:13:41;;;;;;;1999.90;999.90;;;18.60;62.50;;;;;;5076087;28;20526;-79
2022/07/11 08:16:06;;;;;;;1999.90;999.90;;;18.60;62.70;;;;;;5082105;28;20437;-78
2022/07/11 08:18:33;;;;;;;1999.90;999.90;;;18.40;52.50;;;;;;5072190;28;20457;-78
2022/07/11 08:20:59;;;;;;;1999.90;999.90;;;18.60;52.80;;;;;;5081013;28;20067;-80
2022/07/11 08:23:25;;;;;;;1999.90;999.90;;;18.60;52.90;;;;;;5070744;28;20024;-82
2022/07/11 08:25:50;;;;;;;1999.90;999.90;;;18.90;54.90;;;;;;5077178;28;20541;-81
2022/07/11 08:28:16;;;;;;;1999.90;999.90;;;19.00;54.70;;;;;;5057120;28;20029;-81
2022/07/11 08:30:42;;;;;;;1999.90;999.90;;;19.20;50.70;;;;;;5063956;28;20036;-80
2022/07/11 08:33:08;;;;;;;1999.90;999.90;;;19.40;53.60;;;;;;5069975;28;20552;-83
2022/07/11 08:35:34;;;;;;;1999.90;999.90;;;19.30;51.70;;;;;;5069982;28;20032;-80
2022/07/11 08:37:59;;;;;;;1999.90;999.90;;;19.60;51.90;;;;;;5066631;28;20431;-81
2022/07/11 08:40:25;;;;;;;1999.90;999.90;;;19.50;55.90;;;;;;5079394;28;20044;-81
2022/07/11 08:42:51;;;;;;;1999.90;999.90;;;19.70;50.00;;;;;;5078088;28;20062;-80
2022/07/11 08:45:17;;;;;;;1999.90;999.90;;;19.90;51.30;;;;;;5072538;28;20028;-83
2022/07/11 08:47:44;;;;;;;1999.90;999.90;;;19.70;54.40;;;;;;5083097;28;20134;-80
2022/07/11 08:50:11;;;;;;;1999.90;999.90;;;19.80;55.00;;;;;;5068344;28;20029;-80
2022/07/11 08:52:37;;;;;;;1999.90;999.90;;;20.40;52.40;;;;;;5071325;28;20037;-81
2022/07/11 08:55:07;;;;;;;1999.90;999.90;;;20.50;52.90;;;;;;5077261;28;20492;-80
2022/07/11 08:57:34;;;;;;;1999.90;999.90;;;20.40;50.00;;;;;;5068462;28;20515;-81
2022/07/11 09:00:01;;;;;;;1999.90;999.90;;;19.90;51.80;;;;;;5075656;28;20021;-83
2022/07/11 09:02:28;;;;;;;1999.90;999.90;;;20.10;49.50;;;;;;5075664;28;20044;-78
2022/07/11 09:04:54;;;;;;;1999.90;999.90;;;20.40;51.30;;;;;;5056688;28;20021;-78
2022/07/11 09:07:20;;;;;;;1999.90;999.90;;;20.70;50.10;;;;;;5076827;28;20054;-80
2022/07/11 09:09:46;;;;;;;1999.90;999.90;;;21.00;52.30;;;;;;5082532;28;20522;-78
2022/07/11 09:12:14;;;;;;;1999.90;999.90;;;21.30;46.10;;;;;;5080625;28;20032;-79
2022/07/11 09:14:45;;;;;;;1999.90;999.90;;;21.80;52.70;;;;;;5090038;28;20570;-77
2022/07/11 09:17:11;;;;;;;1529.40;757.80;;;21.80;48.70;;;;;;5091612;28;20034;-77
2022/07/11 09:19:40;;;;;;;1999.90;999.90;;;21.50;48.80;;;;;;5093676;28;20015;-80
2022/07/11 09:27:46;;;;;;;1999.90;999.90;;;20.90;48.80;;;;;;5090482;28;20043;-81
2022/07/11 09:30:17;;;;;;;1999.90;999.90;;;21.10;47.30;;;;;;5090993;28;20034;-80
2022/07/11 09:32:56;;;;;;;1999.90;999.90;;;20.10;48.30;;;;;;5086820;28;20070;-85
2022/07/11 09:35:23;;;;;;;1999.90;999.90;;;19.90;51.00;;;;;;5086493;28;20031;-81
2022/07/11 09:37:49;;;;;;;1999.90;999.90;;;20.70;52.40;;;;;;5083939;28;20498;-79
2022/07/11 09:40:17;;;;;;;1999.90;999.90;;;21.00;55.50;;;;;;5089477;28;20057;-79
2022/07/11 09:42:54;;;;;;;1999.90;999.90;;;21.80;49.70;;;;;;5080131;28;20032;-84
2022/07/11 09:45:21;;;;;;;1999.90;999.90;;;22.30;46.00;;;;;;5098451;28;20391;-79
2022/07/11 09:47:49;;;;;;;1999.90;999.90;;;22.20;45.10;;;;;;5083000;28;20039;-79
2022/07/11 09:50:19;;;;;;;1999.90;999.90;;;21.80;44.20;;;;;;5098221;28;20034;-79
2022/07/11 09:53:18;;;;;;;1999.90;999.90;;;22.40;43.50;;;;;;5067739;28;20060;-79
2022/07/11 09:55:48;;;;;;;1999.90;999.90;;;22.60;47.20;;;;;;5047993;28;20150;-78
2022/07/11 09:58:15;;;;;;;1999.90;999.90;;;22.60;45.20;;;;;;5091662;28;20035;-79
2022/07/11 10:00:42;;;;;;;1999.90;999.90;;;22.70;45.00;;;;;;5072965;28;20044;-79
2022/07/11 10:03:10;;;;;;;1999.90;999.90;;;22.40;45.80;;;;;;5093429;28;20027;-79
2022/07/11 10:05:36;;;;;;;1999.90;999.90;;;22.30;41.60;;;;;;5085169;28;20032;-79
2022/07/11 10:08:04;;;;;;;1999.90;999.90;;;22.30;44.80;;;;;;5097027;28;20019;-80
2022/07/11 10:10:31;;;;;;;1999.90;999.90;;;22.50;47.70;;;;;;5098256;28;20024;-78
2022/07/11 10:12:57;;;;;;;1999.90;999.90;;;22.90;43.50;;;;;;5098052;28;20121;-80
2022/07/11 10:15:36;;;;;;;1999.90;999.90;;;22.80;46.50;;;;;;5077993;28;20486;-79
2022/07/11 10:18:18;;;;;;;1999.90;999.90;;;23.40;46.10;;;;;;5075473;28;20039;-79
2022/07/11 10:20:57;;;;;;;1999.90;999.90;;;23.00;45.10;;;;;;5078899;28;20027;-79
2022/07/11 10:23:45;;;;;;;1999.90;999.90;;;22.40;41.50;;;;;;5095958;28;20032;-80
2022/07/11 10:26:32;;;;;;;1999.90;999.90;;;22.70;43.20;;;;;;5077514;28;20498;-80
2022/07/11 10:29:05;;;;;;;1999.90;999.90;;;22.60;41.80;;;;;;5070618;28;20046;-86
2022/07/11 10:31:31;;;;;;;1999.90;999.90;;;22.80;41.70;;;;;;5072212;28;20043;-79
2022/07/11 10:34:10;;;;;;;1999.90;999.90;;;22.70;43.20;;;;;;5073301;28;20024;-78
2022/07/11 10:36:43;;;;;;;1999.90;999.90;;;23.10;46.90;;;;;;5097780;28;20039;-83
2022/07/11 10:39:24;;;;;;;1999.90;999.90;;;23.90;41.90;;;;;;5099998;28;20277;-78
2022/07/11 10:41:50;;;;;;;1999.90;999.90;;;23.70;39.20;;;;;;5079321;28;20075;-78
2022/07/11 10:44:17;;;;;;;1999.90;999.90;;;23.70;47.20;;;;;;5081753;28;20023;-79
2022/07/11 10:46:43;;;;;;;1999.90;999.90;;;24.40;40.10;;;;;;5076986;28;20031;-80
2022/07/11 10:49:15;;;;;;;1999.90;999.90;;;23.90;41.50;;;;;;5095900;28;20238;-78
2022/07/11 10:51:59;;;;;;;1999.90;999.90;;;23.00;42.60;;;;;;5096557;28;20024;-78
2022/07/11 10:54:55;;;;;;;1999.90;999.90;;;23.20;42.50;;;;;;5093433;28;20024;-83
2022/07/11 10:58:02;;;;;;;1999.90;999.90;;;23.30;40.60;;;;;;5086544;28;20115;-80
2022/07/11 11:00:29;;;;;;;1999.90;999.90;;;23.80;42.20;;;;;;4991695;28;20517;-79
2022/07/11 11:03:07;;;;;;;1999.90;999.90;;;25.10;36.90;;;;;;5081591;28;20429;-79
2022/07/11 11:05:44;;;;;;;1999.90;999.90;;;25.10;45.20;;;;;;5087645;28;20024;-79
2022/07/11 11:08:31;;;;;;;1999.90;999.90;;;25.00;39.00;;;;;;5110773;28;20205;-80
2022/07/11 11:10:57;;;;;;;1999.90;999.90;;;24.00;38.30;;;;;;5105795;28;20026;-80
2022/07/11 11:13:23;;;;;;;1999.90;999.90;;;22.90;40.50;;;;;;5100127;28;20433;-81
2022/07/11 11:15:51;;;;;;;1999.90;999.90;;;22.90;40.00;;;;;;5101734;28;20395;-80
2022/07/11 11:18:23;;;;;;;1999.90;999.90;;;22.90;42.60;;;;;;5097985;28;20036;-80
2022/07/11 11:21:00;;;;;;;1999.90;999.90;;;22.60;43.40;;;;;;5082122;28;20062;-80
2022/07/11 11:23:31;;;;;;;1999.90;999.90;;;22.10;44.40;;;;;;5100618;28;20042;-80
2022/07/11 11:26:10;;;;;;;1999.90;999.90;;;24.00;39.10;;;;;;5059306;28;20491;-80
2022/07/11 11:28:36;;;;;;;1999.90;999.90;;;24.40;41.10;;;;;;5078184;28;20120;-80
2022/07/11 11:31:04;;;;;;;1999.90;999.90;;;25.00;43.60;;;;;;5097351;28;20063;-80
2022/07/11 11:33:32;;;;;;;1999.90;999.90;;;25.40;37.00;;;;;;5082370;28;20040;-80
2022/07/11 11:36:09;;;;;;;1999.90;999.90;;;24.10;41.00;;;;;;5097614;28;20040;-81
2022/07/11 11:38:36;;;;;;;1999.90;999.90;;;23.60;39.40;;;;;;5106622;28;20115;-82
2022/07/11 11:41:05;;;;;;;1999.90;999.90;;;24.00;40.90;;;;;;5101352;28;20054;-82
2022/07/11 11:43:31;;;;;;;1999.90;999.90;;;24.70;37.90;;;;;;5081215;28;20052;-82
2022/07/11 11:45:56;;;;;;;1999.90;999.90;;;25.80;35.70;;;;;;5083452;28;20024;-83
2022/07/11 11:48:48;;;;;;;1999.90;999.90;;;26.70;36.10;;;;;;5098699;28;20531;-82
2022/07/11 11:51:16;;;;;;;1999.90;999.90;;;27.00;33.50;;;;;;5083203;28;20086;-81
2022/07/11 11:53:47;;;;;;;1999.90;999.90;;;28.10;29.90;;;;;;5070629;28;20045;-85
2022/07/11 11:56:15;;;;;;;1999.90;999.90;;;27.70;33.50;;;;;;5096287;28;20024;-83
2022/07/11 11:58:44;;;;;;;1999.90;999.90;;;26.90;31.20;;;;;;5074179;28;20035;-83
2022/07/11 12:01:14;;;;;;;1999.90;999.90;;;25.40;32.70;;;;;;5066621;28;20035;-86
2022/07/11 12:03:55;;;;;;;1999.90;999.90;;;26.30;32.20;;;;;;5069652;28;20032;-84
2022/07/11 12:06:23;;;;;;;1999.90;999.90;;;26.30;33.50;;;;;;5061189;28;20036;-80
2022/07/11 12:08:50;;;;;;;1999.90;999.90;;;27.50;30.40;;;;;;5081799;28;20104;-80
2022/07/11 12:11:16;;;;;;;1999.90;999.90;;;26.40;29.60;;;;;;5098920;28;20034;-81
2022/07/11 12:13:43;;;;;;;1999.90;999.90;;;26.70;31.60;;;;;;5087397;28;20071;-81